sensor_id;sensor_type;location;lat;lon;timestamp;P1;durP1;ratioP1;P2;durP2;ratioP2
16468;SDS011;8345;50.902;6.956;2023-07-28T00:02:05;3.40;;;1.63;;
16468;SDS011;8345;50.902;6.956;2023-07-28T00:04:34;2.40;;;2.13;;
16468;SDS011;8345;50.902;6.956;2023-07-28T00:07:01;2.00;;;1.70;;
16468;SDS011;8345;50.902;6.956;2023-07-28T00:09:28;1.70;;;1.30;;
16468;SDS011;8345;50.902;6.956;2023-07-28T00:11:55;1.73;;;1.57;;
16468;SDS011;8345;50.902;6.956;2023-07-28T00:14:23;3.23;;;1.90;;
16468;SDS011;8345;50.902;6.956;2023-07-28T00:16:52;2.00;;;1.30;;
16468;SDS011;8345;50.902;6.956;2023-07-28T00:19:19;3.47;;;1.60;;
16468;SDS011;8345;50.902;6.956;2023-07-28T00:21:47;2.03;;;1.50;;
16468;SDS011;8345;50.902;6.956;2023-07-28T00:24:14;1.67;;;1.57;;
16468;SDS011;8345;50.902;6.956;2023-07-28T00:26:41;3.30;;;2.13;;
16468;SDS011;8345;50.902;6.956;2023-07-28T00:29:08;3.57;;;2.40;;
16468;SDS011;8345;50.902;6.956;2023-07-28T00:31:36;1.53;;;1.40;;
16468;SDS011;8345;50.902;6.956;2023-07-28T00:34:04;3.53;;;1.60;;
16468;SDS011;8345;50.902;6.956;2023-07-28T00:36:32;2.20;;;1.13;;
16468;SDS011;8345;50.902;6.956;2023-07-28T00:38:59;1.80;;;1.60;;
16468;SDS011;8345;50.902;6.956;2023-07-28T00:41:26;1.67;;;1.20;;
16468;SDS011;8345;50.902;6.956;2023-07-28T00:43:53;1.90;;;1.47;;
16468;SDS011;8345;50.902;6.956;2023-07-28T00:46:20;1.60;;;1.50;;
16468;SDS011;8345;50.902;6.956;2023-07-28T00:48:48;1.97;;;1.40;;
16468;SDS011;8345;50.902;6.956;2023-07-28T00:51:16;2.53;;;1.50;;
16468;SDS011;8345;50.902;6.956;2023-07-28T00:53:43;1.80;;;1.30;;
16468;SDS011;8345;50.902;6.956;2023-07-28T00:56:11;3.20;;;1.43;;
16468;SDS011;8345;50.902;6.956;2023-07-28T00:58:38;2.23;;;1.20;;
16468;SDS011;8345;50.902;6.956;2023-07-28T01:01:05;1.00;;;0.90;;
16468;SDS011;8345;50.902;6.956;2023-07-28T01:03:32;1.30;;;1.20;;
16468;SDS011;8345;50.902;6.956;2023-07-28T01:06:03;1.37;;;1.03;;
16468;SDS011;8345;50.902;6.956;2023-07-28T01:08:34;3.37;;;1.40;;
16468;SDS011;8345;50.902;6.956;2023-07-28T01:11:05;3.23;;;1.30;;
16468;SDS011;8345;50.902;6.956;2023-07-28T01:13:32;2.43;;;1.67;;
16468;SDS011;8345;50.902;6.956;2023-07-28T01:16:00;1.47;;;1.37;;
16468;SDS011;8345;50.902;6.956;2023-07-28T01:18:27;1.30;;;1.20;;
16468;SDS011;8345;50.902;6.956;2023-07-28T01:20:55;1.23;;;1.10;;
16468;SDS011;8345;50.902;6.956;2023-07-28T01:23:26;1.47;;;1.07;;
16468;SDS011;8345;50.902;6.956;2023-07-28T01:26:03;2.03;;;1.23;;
16468;SDS011;8345;50.902;6.956;2023-07-28T01:28:34;2.50;;;1.17;;
16468;SDS011;8345;50.902;6.956;2023-07-28T01:31:01;1.30;;;1.20;;
16468;SDS011;8345;50.902;6.956;2023-07-28T01:33:29;3.70;;;1.67;;
16468;SDS011;8345;50.902;6.956;2023-07-28T01:35:56;1.33;;;1.23;;
16468;SDS011;8345;50.902;6.956;2023-07-28T01:38:25;3.03;;;1.27;;
16468;SDS011;8345;50.902;6.956;2023-07-28T01:40:52;1.93;;;1.30;;
16468;SDS011;8345;50.902;6.956;2023-07-28T01:43:19;1.67;;;1.53;;
16468;SDS011;8345;50.902;6.956;2023-07-28T01:45:48;2.07;;;1.70;;
16468;SDS011;8345;50.902;6.956;2023-07-28T01:48:15;1.57;;;1.47;;
16468;SDS011;8345;50.902;6.956;2023-07-28T01:50:42;2.27;;;1.33;;
16468;SDS011;8345;50.902;6.956;2023-07-28T01:53:09;1.20;;;1.07;;
16468;SDS011;8345;50.902;6.956;2023-07-28T01:55:36;4.40;;;1.40;;
16468;SDS011;8345;50.902;6.956;2023-07-28T01:58:04;2.00;;;1.40;;
16468;SDS011;8345;50.902;6.956;2023-07-28T02:00:31;2.23;;;1.07;;
16468;SDS011;8345;50.902;6.956;2023-07-28T02:02:59;1.97;;;1.30;;
16468;SDS011;8345;50.902;6.956;2023-07-28T02:05:28;1.00;;;0.90;;
16468;SDS011;8345;50.902;6.956;2023-07-28T02:07:55;1.87;;;1.00;;
16468;SDS011;8345;50.902;6.956;2023-07-28T02:10:22;1.00;;;0.70;;
16468;SDS011;8345;50.902;6.956;2023-07-28T02:12:49;2.60;;;1.47;;
16468;SDS011;8345;50.902;6.956;2023-07-28T02:15:17;1.83;;;1.37;;
16468;SDS011;8345;50.902;6.956;2023-07-28T02:17:44;1.00;;;0.90;;
16468;SDS011;8345;50.902;6.956;2023-07-28T02:20:13;1.93;;;1.50;;
16468;SDS011;8345;50.902;6.956;2023-07-28T02:22:40;0.80;;;0.80;;
16468;SDS011;8345;50.902;6.956;2023-07-28T02:25:08;1.90;;;1.00;;
16468;SDS011;8345;50.902;6.956;2023-07-28T02:27:35;0.90;;;0.80;;
16468;SDS011;8345;50.902;6.956;2023-07-28T02:30:02;1.23;;;1.13;;
16468;SDS011;8345;50.902;6.956;2023-07-28T02:32:30;2.83;;;1.10;;
16468;SDS011;8345;50.902;6.956;2023-07-28T02:34:57;1.20;;;1.03;;
16468;SDS011;8345;50.902;6.956;2023-07-28T02:37:26;1.43;;;1.23;;
16468;SDS011;8345;50.902;6.956;2023-07-28T02:39:53;0.70;;;0.70;;
16468;SDS011;8345;50.902;6.956;2023-07-28T02:42:20;1.93;;;0.90;;
16468;SDS011;8345;50.902;6.956;2023-07-28T02:44:48;1.73;;;0.80;;
16468;SDS011;8345;50.902;6.956;2023-07-28T02:47:16;2.60;;;1.07;;
16468;SDS011;8345;50.902;6.956;2023-07-28T02:49:43;1.40;;;0.90;;
16468;SDS011;8345;50.902;6.956;2023-07-28T02:52:10;1.60;;;0.70;;
16468;SDS011;8345;50.902;6.956;2023-07-28T02:54:39;1.47;;;0.80;;
16468;SDS011;8345;50.902;6.956;2023-07-28T02:57:06;0.97;;;0.70;;
16468;SDS011;8345;50.902;6.956;2023-07-28T02:59:33;2.37;;;0.90;;
16468;SDS011;8345;50.902;6.956;2023-07-28T03:02:00;2.07;;;1.00;;
16468;SDS011;8345;50.902;6.956;2023-07-28T03:04:28;0.83;;;0.83;;
16468;SDS011;8345;50.902;6.956;2023-07-28T03:06:55;1.90;;;0.70;;
16468;SDS011;8345;50.902;6.956;2023-07-28T03:09:22;0.77;;;0.77;;
16468;SDS011;8345;50.902;6.956;2023-07-28T03:11:50;2.30;;;1.00;;
16468;SDS011;8345;50.902;6.956;2023-07-28T03:14:17;1.10;;;0.80;;
16468;SDS011;8345;50.902;6.956;2023-07-28T03:16:44;1.10;;;0.73;;
16468;SDS011;8345;50.902;6.956;2023-07-28T03:19:11;1.27;;;0.80;;
16468;SDS011;8345;50.902;6.956;2023-07-28T03:21:38;1.00;;;0.70;;
16468;SDS011;8345;50.902;6.956;2023-07-28T03:24:05;0.80;;;0.70;;
16468;SDS011;8345;50.902;6.956;2023-07-28T03:26:32;2.60;;;1.37;;
16468;SDS011;8345;50.902;6.956;2023-07-28T03:29:01;1.20;;;0.80;;
16468;SDS011;8345;50.902;6.956;2023-07-28T03:31:28;0.90;;;0.90;;
16468;SDS011;8345;50.902;6.956;2023-07-28T03:33:55;1.57;;;0.70;;
16468;SDS011;8345;50.902;6.956;2023-07-28T03:36:23;2.43;;;0.87;;
16468;SDS011;8345;50.902;6.956;2023-07-28T03:38:50;1.17;;;0.90;;
16468;SDS011;8345;50.902;6.956;2023-07-28T03:41:17;2.40;;;0.90;;
16468;SDS011;8345;50.902;6.956;2023-07-28T03:43:44;1.03;;;0.90;;
16468;SDS011;8345;50.902;6.956;2023-07-28T03:46:13;0.97;;;0.77;;
16468;SDS011;8345;50.902;6.956;2023-07-28T03:48:40;3.60;;;1.20;;
16468;SDS011;8345;50.902;6.956;2023-07-28T03:51:07;0.77;;;0.77;;
16468;SDS011;8345;50.902;6.956;2023-07-28T03:53:35;4.03;;;2.17;;
16468;SDS011;8345;50.902;6.956;2023-07-28T03:56:02;2.17;;;1.47;;
16468;SDS011;8345;50.902;6.956;2023-07-28T03:58:30;2.93;;;1.40;;
16468;SDS011;8345;50.902;6.956;2023-07-28T04:00:57;1.57;;;0.70;;
16468;SDS011;8345;50.902;6.956;2023-07-28T04:03:25;1.33;;;1.13;;
16468;SDS011;8345;50.902;6.956;2023-07-28T04:05:53;1.47;;;0.70;;
16468;SDS011;8345;50.902;6.956;2023-07-28T04:08:20;1.60;;;0.90;;
16468;SDS011;8345;50.902;6.956;2023-07-28T04:10:47;2.17;;;1.17;;
16468;SDS011;8345;50.902;6.956;2023-07-28T04:13:14;2.07;;;0.77;;
16468;SDS011;8345;50.902;6.956;2023-07-28T04:15:41;1.57;;;0.87;;
16468;SDS011;8345;50.902;6.956;2023-07-28T04:18:08;1.50;;;0.80;;
16468;SDS011;8345;50.902;6.956;2023-07-28T04:20:37;2.97;;;1.27;;
16468;SDS011;8345;50.902;6.956;2023-07-28T04:23:04;1.73;;;0.80;;
16468;SDS011;8345;50.902;6.956;2023-07-28T04:25:31;1.63;;;0.80;;
16468;SDS011;8345;50.902;6.956;2023-07-28T04:27:58;2.43;;;0.90;;
16468;SDS011;8345;50.902;6.956;2023-07-28T04:30:25;2.40;;;1.10;;
16468;SDS011;8345;50.902;6.956;2023-07-28T04:32:53;1.37;;;1.00;;
16468;SDS011;8345;50.902;6.956;2023-07-28T04:35:20;1.30;;;1.13;;
16468;SDS011;8345;50.902;6.956;2023-07-28T04:37:48;2.03;;;0.90;;
16468;SDS011;8345;50.902;6.956;2023-07-28T04:40:16;3.10;;;1.10;;
16468;SDS011;8345;50.902;6.956;2023-07-28T04:42:43;1.33;;;0.93;;
16468;SDS011;8345;50.902;6.956;2023-07-28T04:45:11;3.77;;;1.57;;
16468;SDS011;8345;50.902;6.956;2023-07-28T04:47:38;3.40;;;1.30;;
16468;SDS011;8345;50.902;6.956;2023-07-28T04:50:05;1.47;;;1.27;;
16468;SDS011;8345;50.902;6.956;2023-07-28T04:52:33;2.83;;;1.00;;
16468;SDS011;8345;50.902;6.956;2023-07-28T04:55:01;1.83;;;1.07;;
16468;SDS011;8345;50.902;6.956;2023-07-28T04:57:28;1.87;;;1.30;;
16468;SDS011;8345;50.902;6.956;2023-07-28T04:59:55;1.60;;;1.13;;
16468;SDS011;8345;50.902;6.956;2023-07-28T05:02:23;1.47;;;1.30;;
16468;SDS011;8345;50.902;6.956;2023-07-28T05:04:50;2.20;;;1.20;;
16468;SDS011;8345;50.902;6.956;2023-07-28T05:07:17;1.10;;;1.00;;
16468;SDS011;8345;50.902;6.956;2023-07-28T05:09:45;1.93;;;1.07;;
16468;SDS011;8345;50.902;6.956;2023-07-28T05:12:13;2.23;;;1.50;;
16468;SDS011;8345;50.902;6.956;2023-07-28T05:14:41;1.43;;;1.30;;
16468;SDS011;8345;50.902;6.956;2023-07-28T05:17:08;2.30;;;1.43;;
16468;SDS011;8345;50.902;6.956;2023-07-28T05:19:35;1.20;;;1.10;;
16468;SDS011;8345;50.902;6.956;2023-07-28T05:22:02;2.90;;;1.50;;
16468;SDS011;8345;50.902;6.956;2023-07-28T05:24:31;3.27;;;1.57;;
16468;SDS011;8345;50.902;6.956;2023-07-28T05:26:58;2.07;;;1.23;;
16468;SDS011;8345;50.902;6.956;2023-07-28T05:29:27;3.77;;;1.73;;
16468;SDS011;8345;50.902;6.956;2023-07-28T05:31:54;3.20;;;2.17;;
16468;SDS011;8345;50.902;6.956;2023-07-28T05:34:21;3.87;;;1.63;;
16468;SDS011;8345;50.902;6.956;2023-07-28T05:36:48;2.30;;;1.63;;
16468;SDS011;8345;50.902;6.956;2023-07-28T05:39:16;2.40;;;1.63;;
16468;SDS011;8345;50.902;6.956;2023-07-28T05:41:43;1.60;;;1.50;;
16468;SDS011;8345;50.902;6.956;2023-07-28T05:44:10;4.27;;;1.70;;
16468;SDS011;8345;50.902;6.956;2023-07-28T05:46:39;5.70;;;4.13;;
16468;SDS011;8345;50.902;6.956;2023-07-28T05:49:06;9.80;;;7.93;;
16468;SDS011;8345;50.902;6.956;2023-07-28T05:51:33;4.50;;;2.80;;
16468;SDS011;8345;50.902;6.956;2023-07-28T05:54:00;2.73;;;2.20;;
16468;SDS011;8345;50.902;6.956;2023-07-28T05:56:27;3.33;;;1.80;;
16468;SDS011;8345;50.902;6.956;2023-07-28T05:58:55;3.10;;;1.43;;
16468;SDS011;8345;50.902;6.956;2023-07-28T06:01:22;1.93;;;1.73;;
16468;SDS011;8345;50.902;6.956;2023-07-28T06:03:52;3.83;;;1.73;;
16468;SDS011;8345;50.902;6.956;2023-07-28T06:06:24;2.00;;;1.50;;
16468;SDS011;8345;50.902;6.956;2023-07-28T06:08:51;2.33;;;1.53;;
16468;SDS011;8345;50.902;6.956;2023-07-28T06:11:18;2.23;;;1.70;;
16468;SDS011;8345;50.902;6.956;2023-07-28T06:13:45;2.50;;;1.53;;
16468;SDS011;8345;50.902;6.956;2023-07-28T06:16:13;3.20;;;1.93;;
16468;SDS011;8345;50.902;6.956;2023-07-28T06:18:40;2.30;;;1.47;;
16468;SDS011;8345;50.902;6.956;2023-07-28T06:21:09;3.97;;;1.67;;
16468;SDS011;8345;50.902;6.956;2023-07-28T06:23:36;2.60;;;1.60;;
16468;SDS011;8345;50.902;6.956;2023-07-28T06:26:03;2.50;;;1.70;;
16468;SDS011;8345;50.902;6.956;2023-07-28T06:28:30;3.23;;;1.83;;
16468;SDS011;8345;50.902;6.956;2023-07-28T06:30:57;3.07;;;1.80;;
16468;SDS011;8345;50.902;6.956;2023-07-28T06:33:25;3.70;;;2.00;;
16468;SDS011;8345;50.902;6.956;2023-07-28T06:35:52;2.33;;;1.93;;
16468;SDS011;8345;50.902;6.956;2023-07-28T06:38:21;3.67;;;2.10;;
16468;SDS011;8345;50.902;6.956;2023-07-28T06:40:48;2.93;;;2.07;;
16468;SDS011;8345;50.902;6.956;2023-07-28T06:43:15;3.23;;;1.47;;
16468;SDS011;8345;50.902;6.956;2023-07-28T06:45:43;3.37;;;1.63;;
16468;SDS011;8345;50.902;6.956;2023-07-28T06:48:10;1.43;;;1.07;;
16468;SDS011;8345;50.902;6.956;2023-07-28T06:50:37;1.63;;;1.20;;
16468;SDS011;8345;50.902;6.956;2023-07-28T06:53:05;1.47;;;1.07;;
16468;SDS011;8345;50.902;6.956;2023-07-28T06:55:33;1.13;;;1.10;;
16468;SDS011;8345;50.902;6.956;2023-07-28T06:58:04;1.40;;;0.87;;
16468;SDS011;8345;50.902;6.956;2023-07-28T07:00:31;2.03;;;1.03;;
16468;SDS011;8345;50.902;6.956;2023-07-28T07:02:58;1.97;;;1.07;;
16468;SDS011;8345;50.902;6.956;2023-07-28T07:05:26;2.27;;;1.00;;
16468;SDS011;8345;50.902;6.956;2023-07-28T07:07:53;2.77;;;1.17;;
16468;SDS011;8345;50.902;6.956;2023-07-28T07:10:20;2.63;;;1.23;;
16468;SDS011;8345;50.902;6.956;2023-07-28T07:12:49;2.40;;;0.83;;
16468;SDS011;8345;50.902;6.956;2023-07-28T07:15:16;1.53;;;0.70;;
16468;SDS011;8345;50.902;6.956;2023-07-28T07:17:43;1.27;;;1.00;;
16468;SDS011;8345;50.902;6.956;2023-07-28T07:20:11;1.90;;;1.40;;
16468;SDS011;8345;50.902;6.956;2023-07-28T07:22:38;2.23;;;1.03;;
16468;SDS011;8345;50.902;6.956;2023-07-28T07:25:05;4.67;;;1.47;;
16468;SDS011;8345;50.902;6.956;2023-07-28T07:27:33;1.90;;;1.00;;
16468;SDS011;8345;50.902;6.956;2023-07-28T07:30:02;2.43;;;1.00;;
16468;SDS011;8345;50.902;6.956;2023-07-28T07:32:30;1.20;;;0.87;;
16468;SDS011;8345;50.902;6.956;2023-07-28T07:35:00;3.27;;;1.60;;
16468;SDS011;8345;50.902;6.956;2023-07-28T07:37:27;1.87;;;1.30;;
16468;SDS011;8345;50.902;6.956;2023-07-28T07:39:57;2.87;;;1.50;;
16468;SDS011;8345;50.902;6.956;2023-07-28T07:42:25;2.00;;;1.77;;
16468;SDS011;8345;50.902;6.956;2023-07-28T07:44:52;1.27;;;1.17;;
16468;SDS011;8345;50.902;6.956;2023-07-28T07:47:21;2.90;;;1.40;;
16468;SDS011;8345;50.902;6.956;2023-07-28T07:49:48;2.70;;;1.30;;
16468;SDS011;8345;50.902;6.956;2023-07-28T07:52:15;1.97;;;1.50;;
16468;SDS011;8345;50.902;6.956;2023-07-28T07:54:42;1.70;;;1.60;;
16468;SDS011;8345;50.902;6.956;2023-07-28T07:57:09;1.40;;;1.30;;
16468;SDS011;8345;50.902;6.956;2023-07-28T07:59:37;1.53;;;1.43;;
16468;SDS011;8345;50.902;6.956;2023-07-28T08:02:04;1.73;;;1.63;;
16468;SDS011;8345;50.902;6.956;2023-07-28T08:04:33;2.10;;;1.73;;
16468;SDS011;8345;50.902;6.956;2023-07-28T08:07:01;2.40;;;1.60;;
16468;SDS011;8345;50.902;6.956;2023-07-28T08:09:29;1.60;;;1.50;;
16468;SDS011;8345;50.902;6.956;2023-07-28T08:11:57;1.50;;;1.40;;
16468;SDS011;8345;50.902;6.956;2023-07-28T08:14:24;1.80;;;1.70;;
16468;SDS011;8345;50.902;6.956;2023-07-28T08:16:51;2.07;;;1.87;;
16468;SDS011;8345;50.902;6.956;2023-07-28T08:19:19;2.10;;;1.90;;
16468;SDS011;8345;50.902;6.956;2023-07-28T08:21:47;1.80;;;1.70;;
16468;SDS011;8345;50.902;6.956;2023-07-28T08:24:14;1.70;;;1.60;;
16468;SDS011;8345;50.902;6.956;2023-07-28T08:26:42;1.70;;;1.60;;
16468;SDS011;8345;50.902;6.956;2023-07-28T08:29:09;2.43;;;1.80;;
16468;SDS011;8345;50.902;6.956;2023-07-28T08:31:36;1.67;;;1.57;;
16468;SDS011;8345;50.902;6.956;2023-07-28T08:34:03;2.50;;;1.77;;
16468;SDS011;8345;50.902;6.956;2023-07-28T08:36:30;2.00;;;1.90;;
16468;SDS011;8345;50.902;6.956;2023-07-28T08:38:59;1.87;;;1.67;;
16468;SDS011;8345;50.902;6.956;2023-07-28T08:41:28;1.80;;;1.50;;
16468;SDS011;8345;50.902;6.956;2023-07-28T08:43:55;2.00;;;1.90;;
16468;SDS011;8345;50.902;6.956;2023-07-28T08:46:22;2.43;;;1.80;;
16468;SDS011;8345;50.902;6.956;2023-07-28T08:48:49;1.90;;;1.70;;
16468;SDS011;8345;50.902;6.956;2023-07-28T08:51:17;1.70;;;1.60;;
16468;SDS011;8345;50.902;6.956;2023-07-28T08:53:44;2.63;;;1.90;;
16468;SDS011;8345;50.902;6.956;2023-07-28T08:56:12;1.33;;;1.23;;
16468;SDS011;8345;50.902;6.956;2023-07-28T08:58:40;1.47;;;1.40;;
16468;SDS011;8345;50.902;6.956;2023-07-28T09:01:07;1.60;;;1.50;;
16468;SDS011;8345;50.902;6.956;2023-07-28T09:03:34;1.10;;;1.00;;
16468;SDS011;8345;50.902;6.956;2023-07-28T09:06:06;1.30;;;1.20;;
16468;SDS011;8345;50.902;6.956;2023-07-28T09:08:34;1.10;;;1.10;;
16468;SDS011;8345;50.902;6.956;2023-07-28T09:11:02;0.90;;;0.90;;
16468;SDS011;8345;50.902;6.956;2023-07-28T09:13:36;1.20;;;1.10;;
16468;SDS011;8345;50.902;6.956;2023-07-28T09:16:04;1.47;;;1.30;;
16468;SDS011;8345;50.902;6.956;2023-07-28T09:18:31;1.57;;;1.47;;
16468;SDS011;8345;50.902;6.956;2023-07-28T09:20:59;1.57;;;1.30;;
16468;SDS011;8345;50.902;6.956;2023-07-28T09:23:29;1.50;;;1.40;;
16468;SDS011;8345;50.902;6.956;2023-07-28T09:26:00;1.20;;;1.20;;
16468;SDS011;8345;50.902;6.956;2023-07-28T09:28:38;1.87;;;1.43;;
16468;SDS011;8345;50.902;6.956;2023-07-28T09:31:06;1.60;;;1.50;;
16468;SDS011;8345;50.902;6.956;2023-07-28T09:33:36;2.13;;;1.63;;
16468;SDS011;8345;50.902;6.956;2023-07-28T09:36:08;2.70;;;1.60;;
16468;SDS011;8345;50.902;6.956;2023-07-28T09:38:36;1.25;;;1.15;;
16468;SDS011;8345;50.902;6.956;2023-07-28T09:41:05;2.27;;;1.50;;
16468;SDS011;8345;50.902;6.956;2023-07-28T09:43:33;2.13;;;1.47;;
16468;SDS011;8345;50.902;6.956;2023-07-28T09:46:03;1.63;;;1.53;;
16468;SDS011;8345;50.902;6.956;2023-07-28T09:48:31;1.20;;;1.20;;
16468;SDS011;8345;50.902;6.956;2023-07-28T09:51:00;1.87;;;1.30;;
16468;SDS011;8345;50.902;6.956;2023-07-28T09:53:29;2.03;;;1.27;;
16468;SDS011;8345;50.902;6.956;2023-07-28T09:55:57;2.13;;;1.20;;
16468;SDS011;8345;50.902;6.956;2023-07-28T09:58:25;1.40;;;1.30;;
16468;SDS011;8345;50.902;6.956;2023-07-28T10:00:53;1.50;;;1.40;;
16468;SDS011;8345;50.902;6.956;2023-07-28T10:03:21;2.40;;;1.50;;
16468;SDS011;8345;50.902;6.956;2023-07-28T10:05:49;1.47;;;1.37;;
16468;SDS011;8345;50.902;6.956;2023-07-28T10:08:16;1.50;;;1.40;;
16468;SDS011;8345;50.902;6.956;2023-07-28T10:10:44;3.30;;;1.50;;
16468;SDS011;8345;50.902;6.956;2023-07-28T10:13:19;2.20;;;1.20;;
16468;SDS011;8345;50.902;6.956;2023-07-28T10:15:46;1.60;;;1.50;;
16468;SDS011;8345;50.902;6.956;2023-07-28T10:18:14;1.37;;;1.27;;
16468;SDS011;8345;50.902;6.956;2023-07-28T10:20:43;1.53;;;1.43;;
16468;SDS011;8345;50.902;6.956;2023-07-28T10:23:14;1.40;;;1.30;;
16468;SDS011;8345;50.902;6.956;2023-07-28T10:25:42;1.20;;;1.20;;
16468;SDS011;8345;50.902;6.956;2023-07-28T10:28:24;1.33;;;1.20;;
16468;SDS011;8345;50.902;6.956;2023-07-28T10:30:52;1.47;;;1.17;;
16468;SDS011;8345;50.902;6.956;2023-07-28T10:33:26;1.47;;;1.37;;
16468;SDS011;8345;50.902;6.956;2023-07-28T10:35:55;1.20;;;1.10;;
16468;SDS011;8345;50.902;6.956;2023-07-28T10:38:29;1.10;;;1.03;;
16468;SDS011;8345;50.902;6.956;2023-07-28T10:41:07;1.20;;;1.20;;
16468;SDS011;8345;50.902;6.956;2023-07-28T10:43:34;1.13;;;1.03;;
16468;SDS011;8345;50.902;6.956;2023-07-28T10:46:02;1.30;;;1.20;;
16468;SDS011;8345;50.902;6.956;2023-07-28T10:48:34;1.00;;;1.00;;
16468;SDS011;8345;50.902;6.956;2023-07-28T10:51:03;1.30;;;1.20;;
16468;SDS011;8345;50.902;6.956;2023-07-28T10:53:31;1.33;;;1.23;;
16468;SDS011;8345;50.902;6.956;2023-07-28T10:55:59;1.27;;;1.10;;
16468;SDS011;8345;50.902;6.956;2023-07-28T10:58:27;0.93;;;0.93;;
16468;SDS011;8345;50.902;6.956;2023-07-28T11:00:54;1.23;;;1.03;;
16468;SDS011;8345;50.902;6.956;2023-07-28T11:03:22;0.93;;;0.93;;
16468;SDS011;8345;50.902;6.956;2023-07-28T11:05:49;1.03;;;0.90;;
16468;SDS011;8345;50.902;6.956;2023-07-28T11:08:18;0.70;;;0.70;;
16468;SDS011;8345;50.902;6.956;2023-07-28T11:10:45;0.60;;;0.60;;
16468;SDS011;8345;50.902;6.956;2023-07-28T11:13:12;2.30;;;1.90;;
16468;SDS011;8345;50.902;6.956;2023-07-28T11:15:40;1.80;;;0.73;;
16468;SDS011;8345;50.902;6.956;2023-07-28T11:18:07;2.37;;;1.00;;
16468;SDS011;8345;50.902;6.956;2023-07-28T11:20:36;0.87;;;0.87;;
16468;SDS011;8345;50.902;6.956;2023-07-28T11:23:03;0.83;;;0.83;;
16468;SDS011;8345;50.902;6.956;2023-07-28T11:25:33;2.38;;;1.20;;
16468;SDS011;8345;50.902;6.956;2023-07-28T11:28:01;0.70;;;0.70;;
16468;SDS011;8345;50.902;6.956;2023-07-28T11:30:31;0.55;;;0.55;;
16468;SDS011;8345;50.902;6.956;2023-07-28T11:32:58;0.98;;;0.80;;
16468;SDS011;8345;50.902;6.956;2023-07-28T11:35:26;0.97;;;0.90;;
16468;SDS011;8345;50.902;6.956;2023-07-28T11:37:53;1.43;;;0.87;;
16468;SDS011;8345;50.902;6.956;2023-07-28T11:40:21;0.90;;;0.90;;
16468;SDS011;8345;50.902;6.956;2023-07-28T11:42:53;1.10;;;1.10;;
16468;SDS011;8345;50.902;6.956;2023-07-28T11:45:20;1.33;;;1.20;;
16468;SDS011;8345;50.902;6.956;2023-07-28T11:47:55;0.93;;;0.93;;
16468;SDS011;8345;50.902;6.956;2023-07-28T11:50:22;2.10;;;1.10;;
16468;SDS011;8345;50.902;6.956;2023-07-28T11:52:50;1.20;;;1.10;;
16468;SDS011;8345;50.902;6.956;2023-07-28T11:55:17;1.20;;;1.10;;
16468;SDS011;8345;50.902;6.956;2023-07-28T11:57:45;1.10;;;1.00;;
16468;SDS011;8345;50.902;6.956;2023-07-28T12:00:14;1.20;;;1.10;;
16468;SDS011;8345;50.902;6.956;2023-07-28T12:02:43;1.00;;;1.00;;
16468;SDS011;8345;50.902;6.956;2023-07-28T12:05:13;1.33;;;1.17;;
16468;SDS011;8345;50.902;6.956;2023-07-28T12:07:41;1.38;;;1.27;;
16468;SDS011;8345;50.902;6.956;2023-07-28T12:10:08;0.80;;;0.80;;
16468;SDS011;8345;50.902;6.956;2023-07-28T12:12:40;1.40;;;1.30;;
16468;SDS011;8345;50.902;6.956;2023-07-28T12:15:19;0.97;;;0.97;;
16468;SDS011;8345;50.902;6.956;2023-07-28T12:18:00;1.30;;;1.20;;
16468;SDS011;8345;50.902;6.956;2023-07-28T12:20:32;1.88;;;1.00;;
16468;SDS011;8345;50.902;6.956;2023-07-28T12:22:59;1.08;;;0.98;;
16468;SDS011;8345;50.902;6.956;2023-07-28T12:25:27;0.75;;;0.75;;
16468;SDS011;8345;50.902;6.956;2023-07-28T12:27:54;2.88;;;1.30;;
16468;SDS011;8345;50.902;6.956;2023-07-28T12:30:23;0.70;;;0.70;;
16468;SDS011;8345;50.902;6.956;2023-07-28T12:32:50;1.88;;;1.75;;
16468;SDS011;8345;50.902;6.956;2023-07-28T12:35:17;2.33;;;1.80;;
16468;SDS011;8345;50.902;6.956;2023-07-28T12:37:48;0.70;;;0.70;;
16468;SDS011;8345;50.902;6.956;2023-07-28T12:40:15;1.25;;;0.77;;
16468;SDS011;8345;50.902;6.956;2023-07-28T12:42:44;0.70;;;0.70;;
16468;SDS011;8345;50.902;6.956;2023-07-28T12:45:12;0.70;;;0.70;;
16468;SDS011;8345;50.902;6.956;2023-07-28T12:47:41;0.70;;;0.70;;
16468;SDS011;8345;50.902;6.956;2023-07-28T12:50:08;0.98;;;0.82;;
16468;SDS011;8345;50.902;6.956;2023-07-28T12:52:36;1.63;;;1.13;;
16468;SDS011;8345;50.902;6.956;2023-07-28T12:55:03;0.80;;;0.80;;
16468;SDS011;8345;50.902;6.956;2023-07-28T12:57:31;0.88;;;0.82;;
16468;SDS011;8345;50.902;6.956;2023-07-28T12:59:58;1.88;;;1.45;;
16468;SDS011;8345;50.902;6.956;2023-07-28T13:02:26;0.80;;;0.73;;
16468;SDS011;8345;50.902;6.956;2023-07-28T13:04:54;0.80;;;0.70;;
16468;SDS011;8345;50.902;6.956;2023-07-28T13:07:22;1.10;;;1.05;;
16468;SDS011;8345;50.902;6.956;2023-07-28T13:09:49;0.80;;;0.80;;
16468;SDS011;8345;50.902;6.956;2023-07-28T13:12:16;0.80;;;0.80;;
16468;SDS011;8345;50.902;6.956;2023-07-28T13:14:43;1.00;;;1.00;;
16468;SDS011;8345;50.902;6.956;2023-07-28T13:17:11;0.70;;;0.70;;
16468;SDS011;8345;50.902;6.956;2023-07-28T13:19:39;1.13;;;1.02;;
16468;SDS011;8345;50.902;6.956;2023-07-28T13:22:08;1.42;;;0.80;;
16468;SDS011;8345;50.902;6.956;2023-07-28T13:24:35;0.98;;;0.98;;
16468;SDS011;8345;50.902;6.956;2023-07-28T13:27:03;1.00;;;1.00;;
16468;SDS011;8345;50.902;6.956;2023-07-28T13:29:31;0.85;;;0.85;;
16468;SDS011;8345;50.902;6.956;2023-07-28T13:31:58;1.45;;;0.88;;
16468;SDS011;8345;50.902;6.956;2023-07-28T13:34:26;0.70;;;0.70;;
16468;SDS011;8345;50.902;6.956;2023-07-28T13:36:53;1.13;;;0.88;;
16468;SDS011;8345;50.902;6.956;2023-07-28T13:39:22;1.55;;;0.80;;
16468;SDS011;8345;50.902;6.956;2023-07-28T13:41:49;2.70;;;1.27;;
16468;SDS011;8345;50.902;6.956;2023-07-28T13:44:16;1.40;;;1.08;;
16468;SDS011;8345;50.902;6.956;2023-07-28T13:46:43;2.55;;;1.05;;
16468;SDS011;8345;50.902;6.956;2023-07-28T13:49:11;0.80;;;0.70;;
16468;SDS011;8345;50.902;6.956;2023-07-28T13:51:38;0.80;;;0.80;;
16468;SDS011;8345;50.902;6.956;2023-07-28T13:54:05;1.17;;;0.98;;
16468;SDS011;8345;50.902;6.956;2023-07-28T13:56:33;0.80;;;0.60;;
16468;SDS011;8345;50.902;6.956;2023-07-28T13:59:01;0.90;;;0.90;;
16468;SDS011;8345;50.902;6.956;2023-07-28T14:01:28;1.10;;;1.00;;
16468;SDS011;8345;50.902;6.956;2023-07-28T14:03:55;1.38;;;1.10;;
16468;SDS011;8345;50.902;6.956;2023-07-28T14:06:22;1.05;;;0.95;;
16468;SDS011;8345;50.902;6.956;2023-07-28T14:08:49;1.48;;;0.93;;
16468;SDS011;8345;50.902;6.956;2023-07-28T14:11:16;0.95;;;0.85;;
16468;SDS011;8345;50.902;6.956;2023-07-28T14:13:45;1.50;;;1.00;;
16468;SDS011;8345;50.902;6.956;2023-07-28T14:16:12;1.38;;;0.77;;
16468;SDS011;8345;50.902;6.956;2023-07-28T14:18:39;1.08;;;0.70;;
16468;SDS011;8345;50.902;6.956;2023-07-28T14:21:06;1.45;;;0.40;;
16468;SDS011;8345;50.902;6.956;2023-07-28T14:23:35;0.73;;;0.50;;
16468;SDS011;8345;50.902;6.956;2023-07-28T14:26:02;1.25;;;0.57;;
16468;SDS011;8345;50.902;6.956;2023-07-28T14:28:29;0.40;;;0.40;;
16468;SDS011;8345;50.902;6.956;2023-07-28T14:30:58;0.50;;;0.50;;
16468;SDS011;8345;50.902;6.956;2023-07-28T14:33:25;0.73;;;0.60;;
16468;SDS011;8345;50.902;6.956;2023-07-28T14:35:53;1.15;;;0.68;;
16468;SDS011;8345;50.902;6.956;2023-07-28T14:38:20;0.73;;;0.68;;
16468;SDS011;8345;50.902;6.956;2023-07-28T14:40:47;1.20;;;0.63;;
16468;SDS011;8345;50.902;6.956;2023-07-28T14:43:17;0.70;;;0.70;;
16468;SDS011;8345;50.902;6.956;2023-07-28T14:45:44;1.48;;;0.98;;
16468;SDS011;8345;50.902;6.956;2023-07-28T14:48:13;2.35;;;0.90;;
16468;SDS011;8345;50.902;6.956;2023-07-28T14:50:40;0.80;;;0.80;;
16468;SDS011;8345;50.902;6.956;2023-07-28T14:55:49;1.55;;;0.88;;
16468;SDS011;8345;50.902;6.956;2023-07-28T14:58:17;0.60;;;0.60;;
16468;SDS011;8345;50.902;6.956;2023-07-28T15:00:44;1.55;;;0.60;;
16468;SDS011;8345;50.902;6.956;2023-07-28T15:03:12;0.75;;;0.60;;
16468;SDS011;8345;50.902;6.956;2023-07-28T15:05:40;0.65;;;0.47;;
16468;SDS011;8345;50.902;6.956;2023-07-28T15:08:07;0.60;;;0.60;;